Akademic — LZDA — position and weather

sailwx.info

Track history (hours):
 
Tides and Currents Weather Stations Pressure Air Temp Water Temp Dewpoint Dewpoint Depression Visibility Wind Speed Wind Dir Waves Ship Positions

Oceanographic research ship Akademic (Bulgaria)

Detailed information on ship capabilities available from University of Delaware's Ocean Information Center.

Last reported at 2020-Jul-31 11:48 UTC. Time now 2020-Aug-04 14:57 UTC.
Position N 43°11' E 027°54'.

Length 35 m; draft 4.9 m.

Type: Other ship. MMSI: 207038000.

Date/timePositionNaut miles runAvg speedWind from/ knotsBaromVisibWave heightAir tempDewpointWater temp
2020-Jul-31 11:48N 43°11' E 027°54'8 4.2
2020-Jul-31 09:58N 43°04' E 027°60'21 5.8
2020-Jul-31 06:26N 42°44' E 027°58'2 5.6
2020-Jul-31 06:00N 42°41' E 027°58'35 1.3
2020-Jul-30 03:59N 42°07' E 027°58'  
2020-Jul-27 05:23N 43°35' E 028°38'2 2.1
2020-Jul-27 04:30N 43°35' E 028°36'0 0.0
2020-Jul-27 03:30N 43°35' E 028°36'0 0.0
2020-Jul-27 03:00N 43°35' E 028°36'0 0.0
2020-Jul-27 02:30N 43°35' E 028°36'0 0.0
2020-Jul-27 02:00N 43°35' E 028°36'0 0.0
2020-Jul-27 01:00N 43°35' E 028°36'6 1.4
2020-Jul-26 20:28N 43°29' E 028°39'12 4.8
2020-Jul-26 18:00N 43°20' E 028°30'4 5.0
2020-Jul-26 17:12N 43°16' E 028°27'7 4.9
2020-Jul-26 15:51N 43°11' E 028°22'17 3.8
2020-Jul-26 11:24N 43°10' E 027°59'2 0.8
2020-Jul-26 09:00N 43°11' E 027°56'2 0.3
2020-Jul-26 02:17N 43°11' E 027°54'0 0.0
2020-Jul-25 04:07N 43°11' E 027°54'0 0.0
2020-Jul-24 20:28N 43°11' E 027°54'19 1.3
2020-Jul-24 05:21N 42°59' E 028°14'0 0.0
2020-Jul-24 04:30N 42°59' E 028°14'2 1.2
2020-Jul-24 02:58N 42°59' E 028°17'14 2.0
2020-Jul-23 20:00N 43°04' E 028°34'  
Track history (hours):
 
Tides and Currents Weather Stations Pressure Air Temp Water Temp Dewpoint Dewpoint Depression Visibility Wind Speed Wind Dir Waves Ship Positions

Oceanographic research ship Akademic (Bulgaria)

Detailed information on ship capabilities available from University of Delaware's Ocean Information Center.

Last reported at 2020-Jul-31 11:48 UTC. Time now 2020-Aug-04 14:57 UTC.
Position N 43°11' E 027°54'.

Length 35 m; draft 4.9 m.

Type: Other ship. MMSI: 207038000.

Date/timePositionNaut miles runAvg speedWind from/ knotsBaromVisibWave heightAir tempDewpointWater temp
2020-Jul-31 11:48N 43°11' E 027°54'8 4.2
2020-Jul-31 09:58N 43°04' E 027°60'21 5.8
2020-Jul-31 06:26N 42°44' E 027°58'2 5.6
2020-Jul-31 06:00N 42°41' E 027°58'35 1.3
2020-Jul-30 03:59N 42°07' E 027°58'  
2020-Jul-27 05:23N 43°35' E 028°38'2 2.1
2020-Jul-27 04:30N 43°35' E 028°36'0 0.0
2020-Jul-27 03:30N 43°35' E 028°36'0 0.0
2020-Jul-27 03:00N 43°35' E 028°36'0 0.0
2020-Jul-27 02:30N 43°35' E 028°36'0 0.0
2020-Jul-27 02:00N 43°35' E 028°36'0 0.0
2020-Jul-27 01:00N 43°35' E 028°36'6 1.4
2020-Jul-26 20:28N 43°29' E 028°39'12 4.8
2020-Jul-26 18:00N 43°20' E 028°30'4 5.0
2020-Jul-26 17:12N 43°16' E 028°27'7 4.9
2020-Jul-26 15:51N 43°11' E 028°22'17 3.8
2020-Jul-26 11:24N 43°10' E 027°59'2 0.8
2020-Jul-26 09:00N 43°11' E 027°56'2 0.3
2020-Jul-26 02:17N 43°11' E 027°54'0 0.0
2020-Jul-25 04:07N 43°11' E 027°54'0 0.0
2020-Jul-24 20:28N 43°11' E 027°54'19 1.3
2020-Jul-24 05:21N 42°59' E 028°14'0 0.0
2020-Jul-24 04:30N 42°59' E 028°14'2 1.2
2020-Jul-24 02:58N 42°59' E 028°17'14 2.0
2020-Jul-23 20:00N 43°04' E 028°34'  

Dump ship's entire track history